Algoma, WV

3:37 PM EDT on April 21, 2015 (GMT -0400)
Tazewell County | | Change Station
CLOSE
Current Station
Airport
Location: Richlands,
Elevation: 2651 ft
Nearby Weather Stations

Elev 2651 ft 37.06 °N, 81.80 °W | Updated 22 minutes ago

Partly Cloudy
Partly Cloudy
56 °F
Feels Like 56 °F
N
15
Wind Variable Wind from West
Gusts 24 mph

Today
High -- | Low -- °F
--% Chance of Precip.
Yesterday
High -- | Low -- °F
Precip. -- in
6:43 AM 8:06 PM
Waxing Crescent, 12% visible
Pressure 29.87 in
Visibility 10.0 miles
Clouds Scattered Clouds 7000 ft
Scattered Clouds 9000 ft
Dew Point 23 °F
Humidity 28%
Rainfall 0.00 in
Snow Depth Not available.
UV 7 out of 12
Pollen 10.80 out of 12
Air Quality Not available.
Flu Activity Sporadic
METAR KJFZ 211915Z AUTO 27013G21KT 10SM SCT070 SCT090 14/M05 A2987 RMK AO2 T01361048

More Conditions Fewer Conditions

Pressure 29.87 in
Visibility 10.0 miles
Clouds Scattered Clouds 7000 ft
Scattered Clouds 9000 ft
Dew Point 23 °F
Humidity 28%
Rainfall 0.00 in
Snow Depth Not available.
UV 7 out of 12
Pollen 10.80 out of 12
Air Quality Not available.
Flu Activity Sporadic
METAR KJFZ 211915Z AUTO 27013G21KT 10SM SCT070 SCT090 14/M05 A2987 RMK AO2 T01361048

More Conditions Fewer Conditions

10-Day Weather Forecast

Almanac

Astronomy

Apr. 21, 2015 Rise Set
Actual Time
Civil Twilight
Nautical Twilight
Astronomical Twilight
Moon
Length of Visible Light
Length of Day
Tomorrow will be .
, % of the Moon is Illuminated

Today's Extremes

State Highs State Lows

Community

WunderPhotos

Upload Photos

1,815,514 photos uploaded!

WunderBlogs® & News

Nearby

Air Quality

  Air Quality AQ Index Pollutant
Not available.

Snow Depth

Station Depth Elevation

Earthquake Activity

City Distance Mag. Time & Date
Minimum magnitude displayed is 2.5.

Coastal Water Temperatures

Place Temperature

Stations

Nearby Weather Stations

Station Location Temp. Windchill Dew Point Humidity Wind Precip. Elev Updated Type